createdAt,value
2023-01-18T00:01:21.699Z,-0.90
2023-01-18T00:03:48.960Z,-0.80
2023-01-18T00:06:17.645Z,-0.70
2023-01-18T00:08:44.900Z,-0.60
2023-01-18T00:11:18.504Z,-0.50
2023-01-18T00:13:48.568Z,-1.00
2023-01-18T00:16:19.489Z,-1.10
2023-01-18T00:18:55.981Z,-0.90
2023-01-18T00:21:24.378Z,0.40
2023-01-18T00:23:51.752Z,-1.10
2023-01-18T00:26:19.288Z,-0.20
2023-01-18T00:28:46.784Z,-0.60
2023-01-18T00:31:19.169Z,-0.90
2023-01-18T00:33:49.697Z,-0.90
2023-01-18T00:36:18.172Z,-0.90
2023-01-18T00:38:51.460Z,-0.90
2023-01-18T00:41:19.438Z,-0.90
2023-01-18T00:43:47.008Z,-0.90
2023-01-18T00:46:18.301Z,-0.90
2023-01-18T00:48:45.512Z,-0.40
2023-01-18T00:51:17.536Z,-0.90
2023-01-18T00:53:45.596Z,-0.90
2023-01-18T00:56:18.197Z,-0.90
2023-01-18T00:58:45.826Z,-0.90
2023-01-18T01:01:13.802Z,-1.00
2023-01-18T01:03:59.910Z,-0.90
2023-01-18T01:06:44.629Z,-1.00
2023-01-18T01:09:23.039Z,-1.00
2023-01-18T01:12:09.684Z,-1.10
2023-01-18T01:15:00.230Z,-0.20
2023-01-18T01:17:48.767Z,-1.10
2023-01-18T01:20:35.091Z,-1.10
2023-01-18T01:23:45.931Z,-1.10
2023-01-18T01:26:13.188Z,-1.10
2023-01-18T01:28:45.471Z,-1.10
2023-01-18T01:31:16.184Z,-1.00
2023-01-18T01:33:50.820Z,-1.00
2023-01-18T01:36:26.466Z,-1.10
2023-01-18T01:38:57.026Z,-1.10
2023-01-18T01:41:32.431Z,-1.10
2023-01-18T01:44:34.537Z,-1.10
2023-01-18T01:47:33.753Z,-1.00
2023-01-18T01:50:14.093Z,-1.10
2023-01-18T01:52:45.936Z,-1.10
2023-01-18T01:55:29.205Z,-1.10
2023-01-18T01:58:05.000Z,-1.10
2023-01-18T02:00:33.729Z,-1.10
2023-01-18T02:03:07.644Z,-1.10
2023-01-18T02:05:48.636Z,-1.10
2023-01-18T02:08:22.324Z,-1.10
2023-01-18T02:10:51.032Z,-1.10
2023-01-18T02:13:20.968Z,-1.30
2023-01-18T02:16:33.205Z,-0.30
2023-01-18T02:19:31.950Z,-0.40
2023-01-18T02:22:14.668Z,-1.30
2023-01-18T02:25:05.924Z,-1.30
2023-01-18T02:27:50.225Z,-1.30
2023-01-18T02:30:30.446Z,-1.30
2023-01-18T02:33:26.923Z,-1.30
2023-01-18T02:35:59.947Z,-1.30
2023-01-18T02:38:37.886Z,-1.40
2023-01-18T02:41:24.838Z,-1.30
2023-01-18T02:44:15.803Z,-1.40
2023-01-18T02:46:44.747Z,-1.40
2023-01-18T02:49:27.332Z,-1.10
2023-01-18T02:52:06.584Z,-1.40
2023-01-18T02:54:40.363Z,-1.40
2023-01-18T02:57:15.395Z,-1.40
2023-01-18T02:59:53.168Z,-1.30
2023-01-18T03:02:24.648Z,-1.40
2023-01-18T03:04:57.085Z,-1.30
2023-01-18T03:07:50.806Z,-1.10
2023-01-18T03:10:18.119Z,-1.30
2023-01-18T03:12:58.752Z,-1.30
2023-01-18T03:15:36.217Z,-1.30
2023-01-18T03:18:33.607Z,-1.30
2023-01-18T03:21:05.595Z,-1.30
2023-01-18T03:23:41.169Z,-1.30
2023-01-18T03:26:18.380Z,-1.30
2023-01-18T03:29:12.510Z,-1.30
2023-01-18T03:32:35.306Z,-1.30
2023-01-18T03:35:27.262Z,-1.30
2023-01-18T03:37:59.178Z,-1.20
2023-01-18T03:40:31.213Z,-0.80
2023-01-18T03:43:16.671Z,-1.00
2023-01-18T03:45:49.697Z,-1.20
2023-01-18T03:48:17.192Z,-1.20
2023-01-18T03:51:00.392Z,-1.20
2023-01-18T03:54:04.337Z,-0.50
2023-01-18T03:57:00.701Z,-1.20
2023-01-18T03:59:35.463Z,-1.10
2023-01-18T04:02:06.321Z,-1.10
2023-01-18T04:04:33.920Z,-1.10
2023-01-18T04:07:01.138Z,-1.10
2023-01-18T04:09:28.584Z,-1.10
2023-01-18T04:11:55.672Z,-1.00
2023-01-18T04:14:22.902Z,-1.10
2023-01-18T04:16:50.357Z,-1.00
2023-01-18T04:19:18.304Z,-1.00
2023-01-18T04:21:45.579Z,-0.60
2023-01-18T04:24:13.026Z,0.20
2023-01-18T04:26:40.143Z,-1.00
2023-01-18T04:29:07.240Z,-0.80
2023-01-18T04:31:34.357Z,-0.10
2023-01-18T04:34:01.444Z,-0.90
2023-01-18T04:36:28.522Z,-0.80
2023-01-18T04:38:56.385Z,-0.90
2023-01-18T04:41:24.096Z,-0.90
2023-01-18T04:43:51.330Z,-0.50
2023-01-18T04:46:18.611Z,-0.70
2023-01-18T04:48:51.466Z,-0.80
2023-01-18T04:51:20.042Z,-0.80
2023-01-18T04:53:48.121Z,-0.80
2023-01-18T04:56:16.184Z,0.00
2023-01-18T04:58:44.175Z,-0.80
2023-01-18T05:01:14.696Z,-0.70
2023-01-18T05:03:42.073Z,-0.70
2023-01-18T05:06:13.004Z,-0.70
2023-01-18T05:08:41.156Z,-0.70
2023-01-18T05:11:20.987Z,-0.50
2023-01-18T05:13:48.084Z,-0.60
2023-01-18T05:16:20.981Z,-1.10
2023-01-18T05:18:48.379Z,-0.40
2023-01-18T05:21:16.414Z,-0.50
2023-01-18T05:23:43.843Z,-0.50
2023-01-18T05:26:23.828Z,-0.10
2023-01-18T05:28:56.796Z,-0.40
2023-01-18T05:31:24.187Z,-0.40
2023-01-18T05:33:52.526Z,-0.40
2023-01-18T05:36:19.662Z,-0.40
2023-01-18T05:38:47.817Z,-0.40
2023-01-18T05:41:15.002Z,-0.40
2023-01-18T05:43:42.477Z,-0.40
2023-01-18T05:46:09.680Z,-0.30
2023-01-18T05:48:36.793Z,-0.20
2023-01-18T05:51:09.369Z,-0.30
2023-01-18T05:53:37.163Z,-0.30
2023-01-18T05:56:07.263Z,-0.30
2023-01-18T05:58:35.392Z,-0.30
2023-01-18T06:01:02.576Z,-0.30
2023-01-18T06:03:29.734Z,-0.30
2023-01-18T06:05:58.494Z,-0.30
2023-01-18T06:08:25.633Z,-0.30
2023-01-18T06:10:58.595Z,-0.30
2023-01-18T06:13:28.677Z,1.00
2023-01-18T06:15:57.986Z,-0.30
2023-01-18T06:18:27.724Z,0.50
2023-01-18T06:21:01.409Z,0.50
2023-01-18T06:23:30.471Z,-0.30
2023-01-18T06:25:58.679Z,-0.30
2023-01-18T06:28:26.194Z,-0.30
2023-01-18T06:30:55.434Z,-0.30
2023-01-18T06:33:23.829Z,-0.30
2023-01-18T06:35:51.545Z,-0.30
2023-01-18T06:38:18.669Z,-0.20
2023-01-18T06:40:45.749Z,0.60
2023-01-18T06:43:14.355Z,-0.30
2023-01-18T06:45:42.117Z,-0.30
2023-01-18T06:48:09.443Z,-0.30
2023-01-18T06:50:36.550Z,-0.30
2023-01-18T06:53:03.637Z,-0.30
2023-01-18T06:55:30.723Z,-0.30
2023-01-18T06:57:57.989Z,-0.20
2023-01-18T07:00:25.208Z,-0.30
2023-01-18T07:02:56.602Z,-0.20
2023-01-18T07:05:23.921Z,-0.20
2023-01-18T07:07:51.042Z,-0.20
2023-01-18T07:10:18.143Z,-0.20
2023-01-18T07:12:48.812Z,-0.20
2023-01-18T07:15:21.995Z,-0.20
2023-01-18T07:17:50.684Z,-0.30
2023-01-18T07:20:19.866Z,-0.20
2023-01-18T07:22:52.734Z,-0.30
2023-01-18T07:25:20.805Z,-0.30
2023-01-18T07:27:49.131Z,-0.30
2023-01-18T07:30:17.545Z,-0.30
2023-01-18T07:32:52.283Z,-0.20
2023-01-18T07:35:24.558Z,-0.30
2023-01-18T07:37:53.341Z,-0.10
2023-01-18T07:40:22.036Z,-0.30
2023-01-18T07:42:56.610Z,-0.20
2023-01-18T07:45:24.011Z,-0.20
2023-01-18T07:47:52.998Z,-0.20
2023-01-18T07:50:21.920Z,0.50
2023-01-18T07:52:49.280Z,-0.20
2023-01-18T07:55:16.539Z,-0.20
2023-01-18T07:57:44.014Z,-0.20
2023-01-18T08:00:12.238Z,-0.20
2023-01-18T08:02:42.202Z,-0.20
2023-01-18T08:05:10.666Z,-0.20
2023-01-18T08:07:37.896Z,-0.20
2023-01-18T08:10:05.810Z,-0.10
2023-01-18T08:12:33.037Z,-0.10
2023-01-18T08:15:00.834Z,0.00
2023-01-18T08:17:29.800Z,-0.10
2023-01-18T08:19:57.808Z,-0.10
2023-01-18T08:22:24.958Z,-0.10
2023-01-18T08:24:52.223Z,0.00
2023-01-18T08:27:19.857Z,0.70
2023-01-18T08:29:48.244Z,0.80
2023-01-18T08:32:16.408Z,-0.10
2023-01-18T08:34:43.564Z,0.60
2023-01-18T08:37:11.896Z,-0.10
2023-01-18T08:39:39.092Z,-0.60
2023-01-18T08:42:06.295Z,-0.10
2023-01-18T08:44:33.391Z,0.10
2023-01-18T08:47:00.519Z,-0.10
2023-01-18T08:49:27.834Z,-0.10
2023-01-18T08:51:54.889Z,0.30
2023-01-18T08:54:22.061Z,0.10
2023-01-18T08:56:49.226Z,0.10
2023-01-18T08:59:16.329Z,0.00
2023-01-18T09:01:43.602Z,0.00
2023-01-18T09:04:10.694Z,0.00
2023-01-18T09:06:37.830Z,0.00
2023-01-18T09:09:05.411Z,0.00
2023-01-18T09:11:32.481Z,-0.10
2023-01-18T09:14:02.541Z,0.10
2023-01-18T09:16:31.741Z,0.10
2023-01-18T09:18:59.844Z,0.70
2023-01-18T09:21:28.688Z,0.60
2023-01-18T09:23:56.413Z,0.10
2023-01-18T09:26:23.600Z,0.00
2023-01-18T09:28:53.133Z,0.20
2023-01-18T09:31:24.782Z,0.20
2023-01-18T09:33:53.922Z,0.30
2023-01-18T09:36:26.627Z,0.20
2023-01-18T09:38:55.785Z,0.30
2023-01-18T09:41:46.968Z,0.10
2023-01-18T09:44:39.319Z,0.10
2023-01-18T09:47:14.467Z,0.10
2023-01-18T09:49:58.657Z,0.10
2023-01-18T09:52:50.948Z,0.10
2023-01-18T09:55:42.468Z,0.10
2023-01-18T09:58:42.999Z,0.10
2023-01-18T10:01:21.965Z,0.10
2023-01-18T10:03:55.080Z,0.10
2023-01-18T10:06:51.137Z,0.10
2023-01-18T10:09:33.316Z,0.10
2023-01-18T10:12:14.693Z,0.10
2023-01-18T10:15:01.255Z,0.10
2023-01-18T10:17:42.572Z,0.10
2023-01-18T10:20:57.929Z,0.10
2023-01-18T10:23:40.925Z,0.20
2023-01-18T10:26:32.602Z,0.10
2023-01-18T10:29:15.890Z,0.20
2023-01-18T10:32:01.955Z,0.20
2023-01-18T10:34:36.065Z,0.40
2023-01-18T10:37:26.325Z,0.10
2023-01-18T10:40:09.260Z,0.20
2023-01-18T10:42:46.731Z,0.20
2023-01-18T10:45:25.804Z,0.20
2023-01-18T10:47:55.981Z,0.30
2023-01-18T10:50:37.833Z,0.30
2023-01-18T10:53:23.609Z,0.30
2023-01-18T10:56:14.219Z,0.40
2023-01-18T10:58:54.554Z,0.40
2023-01-18T11:01:27.245Z,0.40
2023-01-18T11:04:08.228Z,0.40
2023-01-18T11:06:47.175Z,0.40
2023-01-18T11:09:52.099Z,1.30
2023-01-18T11:12:48.037Z,0.50
2023-01-18T11:15:15.148Z,0.50
2023-01-18T11:18:00.433Z,0.70
2023-01-18T11:20:40.564Z,0.60
2023-01-18T11:23:10.731Z,0.60
2023-01-18T11:26:01.476Z,2.10
2023-01-18T11:28:44.375Z,0.70
2023-01-18T11:31:46.773Z,0.80
2023-01-18T11:34:34.219Z,0.70
2023-01-18T11:37:02.635Z,0.80
2023-01-18T11:39:33.216Z,0.70
2023-01-18T11:42:31.583Z,0.80
2023-01-18T11:45:41.020Z,0.70
2023-01-18T11:48:42.313Z,0.20
2023-01-18T11:51:40.199Z,0.60
2023-01-18T11:54:31.969Z,0.70
2023-01-18T11:56:59.852Z,0.70
2023-01-18T11:59:37.036Z,0.90
2023-01-18T12:02:35.912Z,0.70
2023-01-18T12:05:28.243Z,0.80
2023-01-18T12:08:15.064Z,0.70
2023-01-18T12:11:03.901Z,0.80
2023-01-18T12:14:01.574Z,0.80
2023-01-18T12:16:48.231Z,0.80
2023-01-18T12:19:44.242Z,0.80
2023-01-18T12:22:42.415Z,0.80
2023-01-18T12:25:43.691Z,0.90
2023-01-18T12:29:00.699Z,0.90
2023-01-18T12:32:06.788Z,0.90
2023-01-18T12:34:47.001Z,0.90
2023-01-18T12:37:31.373Z,0.90
2023-01-18T12:40:31.759Z,0.90
2023-01-18T12:43:14.987Z,0.90
2023-01-18T12:46:05.240Z,0.90
2023-01-18T12:49:02.111Z,0.90
2023-01-18T12:51:35.468Z,0.90
2023-01-18T12:54:35.960Z,1.00
2023-01-18T12:57:04.369Z,0.90
2023-01-18T12:59:54.946Z,0.90
2023-01-18T13:02:41.405Z,0.90
2023-01-18T13:05:53.466Z,1.00
2023-01-18T13:08:29.657Z,0.90
2023-01-18T13:11:25.283Z,1.00
2023-01-18T13:14:33.805Z,1.40
2023-01-18T13:17:31.304Z,1.00
2023-01-18T13:20:14.681Z,1.00
2023-01-18T13:23:18.665Z,1.00
2023-01-18T13:26:19.975Z,1.00
2023-01-18T13:28:47.501Z,1.10
2023-01-18T13:31:14.765Z,1.10
2023-01-18T13:33:46.096Z,1.10
2023-01-18T13:36:17.538Z,1.20
2023-01-18T13:38:59.358Z,1.20
2023-01-18T13:41:30.250Z,1.20
2023-01-18T13:44:03.827Z,1.20
2023-01-18T13:46:36.775Z,1.50
2023-01-18T13:49:45.086Z,1.20
2023-01-18T13:52:33.749Z,1.30
2023-01-18T13:55:16.923Z,1.30
2023-01-18T13:57:55.485Z,1.30
2023-01-18T14:00:27.449Z,1.30
2023-01-18T14:03:06.396Z,1.30
2023-01-18T14:05:46.693Z,1.30
2023-01-18T14:08:29.245Z,1.30
2023-01-18T14:11:09.161Z,1.30
2023-01-18T14:13:45.442Z,1.40
2023-01-18T14:16:23.898Z,1.40
2023-01-18T14:18:57.187Z,1.40
2023-01-18T14:22:01.170Z,1.40
2023-01-18T14:25:06.982Z,1.50
2023-01-18T14:27:43.235Z,1.40
2023-01-18T14:30:45.554Z,1.40
2023-01-18T14:33:31.528Z,1.40
2023-01-18T14:36:01.951Z,1.40
2023-01-18T14:38:31.273Z,1.40
2023-01-18T14:41:05.110Z,1.40
2023-01-18T14:43:42.796Z,1.50
2023-01-18T14:46:26.443Z,1.40
2023-01-18T14:49:01.195Z,1.40
2023-01-18T14:51:29.897Z,1.40
2023-01-18T14:54:02.944Z,1.40
2023-01-18T14:56:34.936Z,1.30
2023-01-18T14:59:19.917Z,1.30
2023-01-18T15:02:02.974Z,1.30
2023-01-18T15:04:38.882Z,1.30
2023-01-18T15:07:17.322Z,1.20
2023-01-18T15:09:46.013Z,1.30
2023-01-18T15:12:21.341Z,1.20
2023-01-18T15:14:50.759Z,1.20
2023-01-18T15:17:25.284Z,1.10
2023-01-18T15:19:57.821Z,1.10
2023-01-18T15:22:31.941Z,1.00
2023-01-18T15:25:01.007Z,1.00
2023-01-18T15:27:34.213Z,1.00
2023-01-18T15:30:02.679Z,1.00
2023-01-18T15:32:33.497Z,1.20
2023-01-18T15:35:02.508Z,1.00
2023-01-18T15:37:37.770Z,0.90
2023-01-18T15:40:31.772Z,0.90
2023-01-18T15:43:51.136Z,0.90
2023-01-18T15:46:18.568Z,0.90
2023-01-18T15:48:58.302Z,0.90
2023-01-18T15:51:44.196Z,0.90
2023-01-18T15:54:21.030Z,0.70
2023-01-18T15:56:49.254Z,0.70
2023-01-18T15:59:24.687Z,0.70
2023-01-18T16:02:20.400Z,0.50
2023-01-18T16:04:47.917Z,0.50
2023-01-18T16:07:30.286Z,0.50
2023-01-18T16:10:28.089Z,0.50
2023-01-18T16:13:16.653Z,0.50
2023-01-18T16:15:44.901Z,0.40
2023-01-18T16:18:14.326Z,0.40
2023-01-18T16:20:41.563Z,1.00
2023-01-18T16:23:17.652Z,0.60
2023-01-18T16:25:59.595Z,0.40
2023-01-18T16:28:26.922Z,0.20
2023-01-18T16:30:55.153Z,0.40
2023-01-18T16:33:22.377Z,0.20
2023-01-18T16:35:49.772Z,0.30
2023-01-18T16:38:19.959Z,0.20
2023-01-18T16:40:50.291Z,0.50
2023-01-18T16:43:29.364Z,0.60
2023-01-18T16:45:59.101Z,0.20
2023-01-18T16:48:29.497Z,0.20
2023-01-18T16:50:59.446Z,0.30
2023-01-18T16:53:27.418Z,0.10
2023-01-18T16:55:56.208Z,0.10
2023-01-18T16:58:24.144Z,0.00
2023-01-18T17:01:05.873Z,0.10
2023-01-18T17:03:34.512Z,-0.10
2023-01-18T17:06:02.454Z,-0.10
2023-01-18T17:08:30.101Z,0.10
2023-01-18T17:10:57.345Z,-0.30
2023-01-18T17:13:24.748Z,-0.40
2023-01-18T17:15:53.468Z,-0.40
2023-01-18T17:18:27.821Z,-0.50
2023-01-18T17:20:55.732Z,-0.50
2023-01-18T17:23:25.640Z,-0.50
2023-01-18T17:25:52.768Z,-0.50
2023-01-18T17:28:20.474Z,-0.50
2023-01-18T17:30:49.741Z,0.10
2023-01-18T17:33:21.641Z,-0.50
2023-01-18T17:35:51.508Z,-0.40
2023-01-18T17:38:24.252Z,-0.60
2023-01-18T17:40:52.517Z,0.10
2023-01-18T17:43:32.142Z,-0.60
2023-01-18T17:46:04.018Z,-0.60
2023-01-18T17:48:31.292Z,-0.70
2023-01-18T17:50:58.861Z,-0.60
2023-01-18T17:53:26.327Z,-0.60
2023-01-18T17:55:53.771Z,-0.80
2023-01-18T17:58:20.926Z,-0.80
2023-01-18T18:00:48.088Z,-0.90
2023-01-18T18:03:15.488Z,-0.90
2023-01-18T18:05:42.641Z,-0.90
2023-01-18T18:08:09.765Z,-0.90
2023-01-18T18:10:36.885Z,-0.20
2023-01-18T18:13:04.325Z,-1.00
2023-01-18T18:15:31.632Z,-0.40
2023-01-18T18:17:58.864Z,-1.00
2023-01-18T18:20:26.034Z,-1.00
2023-01-18T18:22:53.106Z,-1.10
2023-01-18T18:25:20.269Z,-1.10
2023-01-18T18:27:47.729Z,-1.20
2023-01-18T18:30:17.563Z,-0.30
2023-01-18T18:32:44.876Z,-1.20
2023-01-18T18:35:24.558Z,-1.30
2023-01-18T18:37:54.123Z,-1.00
2023-01-18T18:40:21.812Z,-1.30
2023-01-18T18:43:04.926Z,-1.40
2023-01-18T18:45:32.845Z,-1.40
2023-01-18T18:48:01.072Z,-1.30
2023-01-18T18:50:28.994Z,-1.50
2023-01-18T18:52:56.404Z,-0.90
2023-01-18T18:55:25.210Z,-1.50
2023-01-18T18:57:52.264Z,-1.60
2023-01-18T19:00:20.003Z,-1.60
2023-01-18T19:02:47.170Z,-1.70
2023-01-18T19:05:15.223Z,-1.70
2023-01-18T19:07:43.103Z,-1.60
2023-01-18T19:10:13.363Z,-1.60
2023-01-18T19:12:40.505Z,-1.80
2023-01-18T19:15:08.415Z,-1.70
2023-01-18T19:17:35.598Z,-1.50
2023-01-18T19:20:03.432Z,-1.80
2023-01-18T19:22:30.588Z,-1.80
2023-01-18T19:24:57.767Z,-1.90
2023-01-18T19:27:24.955Z,-1.90
2023-01-18T19:29:53.450Z,-2.00
2023-01-18T19:32:21.158Z,-2.00
2023-01-18T19:34:48.287Z,-2.00
2023-01-18T19:37:15.434Z,-1.60
2023-01-18T19:39:42.628Z,-2.10
2023-01-18T19:42:09.834Z,-2.10
2023-01-18T19:44:37.098Z,-2.20
2023-01-18T19:47:04.471Z,-2.20
2023-01-18T19:49:31.710Z,-2.30
2023-01-18T19:51:58.859Z,-2.00
2023-01-18T19:54:26.239Z,-2.40
2023-01-18T19:56:53.447Z,-2.50
2023-01-18T19:59:20.527Z,-2.50
2023-01-18T20:01:48.264Z,-2.50
2023-01-18T20:04:15.708Z,-2.50
2023-01-18T20:06:45.122Z,-2.60
2023-01-18T20:09:27.052Z,-2.50
2023-01-18T20:11:59.782Z,-2.60
2023-01-18T20:14:36.732Z,-2.60
2023-01-18T20:17:11.992Z,-2.60
2023-01-18T20:19:39.114Z,-2.70
2023-01-18T20:22:06.316Z,-2.70
2023-01-18T20:24:33.520Z,-2.70
2023-01-18T20:27:25.958Z,-2.80
2023-01-18T20:29:53.244Z,-2.90
2023-01-18T20:32:20.581Z,-2.90
2023-01-18T20:34:48.061Z,-2.90
2023-01-18T20:37:16.089Z,-3.00
2023-01-18T20:39:43.361Z,-3.10
2023-01-18T20:42:10.823Z,-2.80
2023-01-18T20:44:38.209Z,-3.10
2023-01-18T20:47:05.727Z,-2.90
2023-01-18T20:49:38.373Z,-3.20
2023-01-18T20:52:07.609Z,-3.20
2023-01-18T20:54:37.964Z,-3.20
2023-01-18T20:57:06.556Z,-3.30
2023-01-18T20:59:34.911Z,-3.30
2023-01-18T21:02:03.294Z,-3.30
2023-01-18T21:04:30.600Z,-3.30
2023-01-18T21:06:57.865Z,-3.30
2023-01-18T21:09:25.798Z,-3.30
2023-01-18T21:11:52.957Z,-3.40
2023-01-18T21:14:20.066Z,-3.40
2023-01-18T21:16:47.221Z,-3.40
2023-01-18T21:19:14.540Z,-3.40
2023-01-18T21:21:41.725Z,-3.40
2023-01-18T21:24:08.883Z,-3.50
2023-01-18T21:26:37.771Z,-3.40
2023-01-18T21:29:05.839Z,-3.50
2023-01-18T21:31:33.024Z,-3.50
2023-01-18T21:34:00.157Z,-3.50
2023-01-18T21:36:27.479Z,-3.20
2023-01-18T21:38:55.115Z,-3.50
2023-01-18T21:41:42.498Z,-3.60
2023-01-18T21:44:30.345Z,-3.60
2023-01-18T21:46:57.645Z,-3.70
2023-01-18T21:50:14.933Z,-3.70
2023-01-18T21:52:49.608Z,-3.70
2023-01-18T21:55:18.381Z,-3.70
2023-01-18T21:57:45.692Z,-3.80
2023-01-18T22:00:13.554Z,-3.90
2023-01-18T22:02:40.801Z,-3.90
2023-01-18T22:05:09.867Z,-3.90
2023-01-18T22:07:36.999Z,-3.90
2023-01-18T22:10:06.593Z,-4.00
2023-01-18T22:12:35.750Z,-3.90
2023-01-18T22:15:05.269Z,-4.00
2023-01-18T22:17:32.720Z,-4.00
2023-01-18T22:20:00.343Z,-4.00
2023-01-18T22:22:28.213Z,-4.00
2023-01-18T22:24:56.586Z,-4.00
2023-01-18T22:27:23.694Z,-4.10
2023-01-18T22:29:51.278Z,-4.10
2023-01-18T22:32:18.423Z,-4.10
2023-01-18T22:34:45.545Z,-4.10
2023-01-18T22:37:12.641Z,-4.10
2023-01-18T22:39:40.024Z,-4.20
2023-01-18T22:42:08.351Z,-4.30
2023-01-18T22:44:35.480Z,-4.40
2023-01-18T22:47:02.651Z,-4.40
2023-01-18T22:49:29.800Z,-4.40
2023-01-18T22:51:56.870Z,-4.50
2023-01-18T22:54:23.979Z,-4.50
2023-01-18T22:56:51.093Z,-4.50
2023-01-18T22:59:18.133Z,-4.50
2023-01-18T23:01:45.341Z,-4.50
2023-01-18T23:04:12.473Z,-4.50
2023-01-18T23:06:45.517Z,-4.50
2023-01-18T23:09:17.511Z,-4.50
2023-01-18T23:11:47.561Z,-4.50
2023-01-18T23:14:33.696Z,-4.50
2023-01-18T23:17:19.148Z,-4.50
2023-01-18T23:19:46.552Z,-4.50
2023-01-18T23:22:13.716Z,-4.60
2023-01-18T23:24:40.816Z,-4.60
2023-01-18T23:27:12.508Z,-4.60
2023-01-18T23:29:39.934Z,-4.60
2023-01-18T23:32:08.433Z,-4.70
2023-01-18T23:34:35.611Z,-4.70
2023-01-18T23:37:02.726Z,-4.70
2023-01-18T23:39:48.256Z,-4.70
2023-01-18T23:42:33.715Z,-4.70
2023-01-18T23:45:19.123Z,-4.70
2023-01-18T23:48:04.659Z,-4.70
2023-01-18T23:50:50.211Z,-4.70
2023-01-18T23:53:36.244Z,-4.70
2023-01-18T23:56:03.351Z,-4.80
2023-01-18T23:58:30.599Z,-4.80
